sensor_id;sensor_type;location;lat;lon;timestamp;P1;durP1;ratioP1;P2;durP2;ratioP2
16139;SDS011;8175;49.326;12.690;2022-12-18T00:01:28;21.40;;;11.47;;
16139;SDS011;8175;49.326;12.690;2022-12-18T00:03:56;15.33;;;9.10;;
16139;SDS011;8175;49.326;12.690;2022-12-18T00:06:23;14.67;;;8.77;;
16139;SDS011;8175;49.326;12.690;2022-12-18T00:08:51;15.13;;;8.57;;
16139;SDS011;8175;49.326;12.690;2022-12-18T00:11:17;18.90;;;9.43;;
16139;SDS011;8175;49.326;12.690;2022-12-18T00:13:45;15.77;;;9.63;;
16139;SDS011;8175;49.326;12.690;2022-12-18T00:16:12;19.27;;;10.30;;
16139;SDS011;8175;49.326;12.690;2022-12-18T00:18:40;23.60;;;11.47;;
16139;SDS011;8175;49.326;12.690;2022-12-18T00:21:07;24.73;;;12.27;;
16139;SDS011;8175;49.326;12.690;2022-12-18T00:23:38;20.27;;;12.47;;
16139;SDS011;8175;49.326;12.690;2022-12-18T00:26:06;36.93;;;14.33;;
16139;SDS011;8175;49.326;12.690;2022-12-18T00:28:35;30.70;;;14.23;;
16139;SDS011;8175;49.326;12.690;2022-12-18T00:33:31;42.50;;;15.23;;
16139;SDS011;8175;49.326;12.690;2022-12-18T00:36:00;21.83;;;11.37;;
16139;SDS011;8175;49.326;12.690;2022-12-18T00:38:27;38.37;;;17.43;;
16139;SDS011;8175;49.326;12.690;2022-12-18T00:40:52;31.47;;;11.77;;
16139;SDS011;8175;49.326;12.690;2022-12-18T00:43:18;25.87;;;13.80;;
16139;SDS011;8175;49.326;12.690;2022-12-18T00:45:43;20.80;;;10.77;;
16139;SDS011;8175;49.326;12.690;2022-12-18T00:48:09;31.10;;;15.37;;
16139;SDS011;8175;49.326;12.690;2022-12-18T00:50:35;28.93;;;14.83;;
16139;SDS011;8175;49.326;12.690;2022-12-18T00:53:00;23.13;;;12.13;;
16139;SDS011;8175;49.326;12.690;2022-12-18T00:55:26;22.23;;;11.60;;
16139;SDS011;8175;49.326;12.690;2022-12-18T00:57:52;19.53;;;11.20;;
16139;SDS011;8175;49.326;12.690;2022-12-18T01:00:17;21.87;;;11.57;;
16139;SDS011;8175;49.326;12.690;2022-12-18T01:02:43;20.67;;;12.60;;
16139;SDS011;8175;49.326;12.690;2022-12-18T01:05:10;22.33;;;11.43;;
16139;SDS011;8175;49.326;12.690;2022-12-18T01:07:36;18.77;;;10.33;;
16139;SDS011;8175;49.326;12.690;2022-12-18T01:10:03;18.10;;;9.47;;
16139;SDS011;8175;49.326;12.690;2022-12-18T01:12:30;21.30;;;10.37;;
16139;SDS011;8175;49.326;12.690;2022-12-18T01:14:56;19.97;;;9.40;;
16139;SDS011;8175;49.326;12.690;2022-12-18T01:17:22;19.93;;;10.33;;
16139;SDS011;8175;49.326;12.690;2022-12-18T01:19:47;21.17;;;10.57;;
16139;SDS011;8175;49.326;12.690;2022-12-18T01:22:13;21.93;;;10.07;;
16139;SDS011;8175;49.326;12.690;2022-12-18T01:24:39;22.17;;;11.00;;
16139;SDS011;8175;49.326;12.690;2022-12-18T01:27:05;23.70;;;10.87;;
16139;SDS011;8175;49.326;12.690;2022-12-18T01:29:30;32.87;;;11.50;;
16139;SDS011;8175;49.326;12.690;2022-12-18T01:31:56;21.77;;;10.27;;
16139;SDS011;8175;49.326;12.690;2022-12-18T01:34:22;20.90;;;10.40;;
16139;SDS011;8175;49.326;12.690;2022-12-18T01:36:49;26.20;;;11.37;;
16139;SDS011;8175;49.326;12.690;2022-12-18T01:39:17;26.77;;;10.03;;
16139;SDS011;8175;49.326;12.690;2022-12-18T01:41:43;19.10;;;10.13;;
16139;SDS011;8175;49.326;12.690;2022-12-18T01:49:52;29.47;;;10.20;;
16139;SDS011;8175;49.326;12.690;2022-12-18T01:52:19;17.27;;;10.03;;
16139;SDS011;8175;49.326;12.690;2022-12-18T01:54:46;21.57;;;10.80;;
16139;SDS011;8175;49.326;12.690;2022-12-18T01:57:14;21.47;;;11.43;;
16139;SDS011;8175;49.326;12.690;2022-12-18T01:59:40;25.30;;;12.00;;
16139;SDS011;8175;49.326;12.690;2022-12-18T02:02:07;31.83;;;12.10;;
16139;SDS011;8175;49.326;12.690;2022-12-18T02:04:33;20.47;;;11.43;;
16139;SDS011;8175;49.326;12.690;2022-12-18T02:07:02;34.43;;;13.07;;
16139;SDS011;8175;49.326;12.690;2022-12-18T02:09:36;37.53;;;13.23;;
16139;SDS011;8175;49.326;12.690;2022-12-18T02:17:42;21.70;;;10.90;;
16139;SDS011;8175;49.326;12.690;2022-12-18T02:20:14;24.07;;;11.10;;
16139;SDS011;8175;49.326;12.690;2022-12-18T02:25:29;17.20;;;10.17;;
16139;SDS011;8175;49.326;12.690;2022-12-18T02:28:04;20.47;;;9.80;;
16139;SDS011;8175;49.326;12.690;2022-12-18T02:30:34;20.43;;;10.20;;
16139;SDS011;8175;49.326;12.690;2022-12-18T02:33:01;28.50;;;11.23;;
16139;SDS011;8175;49.326;12.690;2022-12-18T02:35:29;28.03;;;10.73;;
16139;SDS011;8175;49.326;12.690;2022-12-18T02:37:56;21.23;;;10.63;;
16139;SDS011;8175;49.326;12.690;2022-12-18T02:40:23;25.97;;;10.03;;
16139;SDS011;8175;49.326;12.690;2022-12-18T02:42:51;24.23;;;11.87;;
16139;SDS011;8175;49.326;12.690;2022-12-18T02:45:16;36.67;;;10.40;;
16139;SDS011;8175;49.326;12.690;2022-12-18T02:47:43;31.00;;;10.67;;
16139;SDS011;8175;49.326;12.690;2022-12-18T02:50:22;21.10;;;9.50;;
16139;SDS011;8175;49.326;12.690;2022-12-18T02:56:01;52.73;;;10.50;;
16139;SDS011;8175;49.326;12.690;2022-12-18T03:01:19;43.70;;;11.80;;
16139;SDS011;8175;49.326;12.690;2022-12-18T03:03:51;63.03;;;12.03;;
16139;SDS011;8175;49.326;12.690;2022-12-18T03:06:42;48.93;;;11.83;;
16139;SDS011;8175;49.326;12.690;2022-12-18T03:09:17;51.33;;;12.60;;
16139;SDS011;8175;49.326;12.690;2022-12-18T03:11:50;45.93;;;12.17;;
16139;SDS011;8175;49.326;12.690;2022-12-18T03:14:40;16.87;;;8.13;;
16139;SDS011;8175;49.326;12.690;2022-12-18T03:17:11;19.33;;;9.87;;
16139;SDS011;8175;49.326;12.690;2022-12-18T03:19:41;16.83;;;9.10;;
16139;SDS011;8175;49.326;12.690;2022-12-18T03:22:08;16.67;;;8.40;;
16139;SDS011;8175;49.326;12.690;2022-12-18T03:24:35;18.00;;;9.07;;
16139;SDS011;8175;49.326;12.690;2022-12-18T03:27:05;12.43;;;7.53;;
16139;SDS011;8175;49.326;12.690;2022-12-18T03:29:38;18.17;;;9.27;;
16139;SDS011;8175;49.326;12.690;2022-12-18T03:32:09;14.00;;;7.87;;
16139;SDS011;8175;49.326;12.690;2022-12-18T03:34:38;19.43;;;8.53;;
16139;SDS011;8175;49.326;12.690;2022-12-18T03:37:06;22.93;;;10.63;;
16139;SDS011;8175;49.326;12.690;2022-12-18T03:39:33;23.40;;;10.20;;
16139;SDS011;8175;49.326;12.690;2022-12-18T03:42:05;33.37;;;11.23;;
16139;SDS011;8175;49.326;12.690;2022-12-18T03:50:15;23.30;;;10.20;;
16139;SDS011;8175;49.326;12.690;2022-12-18T03:52:51;23.93;;;10.37;;
16139;SDS011;8175;49.326;12.690;2022-12-18T03:55:25;97.87;;;14.77;;
16139;SDS011;8175;49.326;12.690;2022-12-18T03:57:55;22.30;;;11.20;;
16139;SDS011;8175;49.326;12.690;2022-12-18T04:00:22;17.77;;;9.30;;
16139;SDS011;8175;49.326;12.690;2022-12-18T04:02:52;28.43;;;9.23;;
16139;SDS011;8175;49.326;12.690;2022-12-18T04:05:20;15.20;;;8.23;;
16139;SDS011;8175;49.326;12.690;2022-12-18T04:07:48;16.53;;;8.40;;
16139;SDS011;8175;49.326;12.690;2022-12-18T04:10:16;20.53;;;8.47;;
16139;SDS011;8175;49.326;12.690;2022-12-18T04:12:43;22.80;;;9.07;;
16139;SDS011;8175;49.326;12.690;2022-12-18T04:15:09;21.57;;;10.50;;
16139;SDS011;8175;49.326;12.690;2022-12-18T04:17:36;17.83;;;8.87;;
16139;SDS011;8175;49.326;12.690;2022-12-18T04:20:02;17.43;;;9.47;;
16139;SDS011;8175;49.326;12.690;2022-12-18T04:22:28;12.37;;;8.27;;
16139;SDS011;8175;49.326;12.690;2022-12-18T04:24:54;16.20;;;8.10;;
16139;SDS011;8175;49.326;12.690;2022-12-18T04:27:19;12.87;;;7.43;;
16139;SDS011;8175;49.326;12.690;2022-12-18T04:29:45;16.77;;;8.17;;
16139;SDS011;8175;49.326;12.690;2022-12-18T04:32:11;16.50;;;7.67;;
16139;SDS011;8175;49.326;12.690;2022-12-18T04:34:36;13.43;;;8.03;;
16139;SDS011;8175;49.326;12.690;2022-12-18T04:37:02;16.20;;;7.80;;
16139;SDS011;8175;49.326;12.690;2022-12-18T04:39:28;13.30;;;7.13;;
16139;SDS011;8175;49.326;12.690;2022-12-18T04:41:53;17.30;;;8.60;;
16139;SDS011;8175;49.326;12.690;2022-12-18T04:44:19;12.57;;;7.40;;
16139;SDS011;8175;49.326;12.690;2022-12-18T04:46:44;12.90;;;7.77;;
16139;SDS011;8175;49.326;12.690;2022-12-18T04:49:10;17.47;;;8.33;;
16139;SDS011;8175;49.326;12.690;2022-12-18T04:51:36;18.53;;;8.47;;
16139;SDS011;8175;49.326;12.690;2022-12-18T04:54:02;15.20;;;8.33;;
16139;SDS011;8175;49.326;12.690;2022-12-18T04:56:28;20.23;;;9.03;;
16139;SDS011;8175;49.326;12.690;2022-12-18T04:58:55;16.10;;;7.83;;
16139;SDS011;8175;49.326;12.690;2022-12-18T05:01:21;16.83;;;8.33;;
16139;SDS011;8175;49.326;12.690;2022-12-18T05:03:47;18.17;;;9.53;;
16139;SDS011;8175;49.326;12.690;2022-12-18T05:06:12;23.27;;;10.33;;
16139;SDS011;8175;49.326;12.690;2022-12-18T05:08:38;22.87;;;10.33;;
16139;SDS011;8175;49.326;12.690;2022-12-18T05:11:06;25.77;;;12.43;;
16139;SDS011;8175;49.326;12.690;2022-12-18T05:13:33;19.83;;;10.43;;
16139;SDS011;8175;49.326;12.690;2022-12-18T05:16:00;21.07;;;10.83;;
16139;SDS011;8175;49.326;12.690;2022-12-18T05:18:26;19.43;;;10.50;;
16139;SDS011;8175;49.326;12.690;2022-12-18T05:20:52;25.20;;;10.63;;
16139;SDS011;8175;49.326;12.690;2022-12-18T05:23:18;21.97;;;10.53;;
16139;SDS011;8175;49.326;12.690;2022-12-18T05:28:24;14.10;;;7.33;;
16139;SDS011;8175;49.326;12.690;2022-12-18T05:30:52;17.07;;;8.00;;
16139;SDS011;8175;49.326;12.690;2022-12-18T05:33:19;23.03;;;11.10;;
16139;SDS011;8175;49.326;12.690;2022-12-18T05:35:52;20.57;;;10.20;;
16139;SDS011;8175;49.326;12.690;2022-12-18T05:38:19;21.30;;;11.23;;
16139;SDS011;8175;49.326;12.690;2022-12-18T05:40:50;22.23;;;11.00;;
16139;SDS011;8175;49.326;12.690;2022-12-18T05:43:16;24.77;;;11.73;;
16139;SDS011;8175;49.326;12.690;2022-12-18T05:45:44;25.93;;;10.20;;
16139;SDS011;8175;49.326;12.690;2022-12-18T05:48:10;32.10;;;12.47;;
16139;SDS011;8175;49.326;12.690;2022-12-18T05:50:37;24.00;;;10.90;;
16139;SDS011;8175;49.326;12.690;2022-12-18T05:53:04;21.43;;;11.47;;
16139;SDS011;8175;49.326;12.690;2022-12-18T05:55:36;24.67;;;11.10;;
16139;SDS011;8175;49.326;12.690;2022-12-18T05:58:03;18.43;;;10.97;;
16139;SDS011;8175;49.326;12.690;2022-12-18T06:00:31;20.50;;;10.20;;
16139;SDS011;8175;49.326;12.690;2022-12-18T06:02:58;16.63;;;9.07;;
16139;SDS011;8175;49.326;12.690;2022-12-18T06:05:24;15.13;;;9.30;;
16139;SDS011;8175;49.326;12.690;2022-12-18T06:07:50;12.50;;;6.50;;
16139;SDS011;8175;49.326;12.690;2022-12-18T06:10:16;11.43;;;6.50;;
16139;SDS011;8175;49.326;12.690;2022-12-18T06:12:41;14.07;;;6.13;;
16139;SDS011;8175;49.326;12.690;2022-12-18T06:15:07;8.50;;;5.47;;
16139;SDS011;8175;49.326;12.690;2022-12-18T06:17:33;11.13;;;5.47;;
16139;SDS011;8175;49.326;12.690;2022-12-18T06:19:59;11.07;;;5.57;;
16139;SDS011;8175;49.326;12.690;2022-12-18T06:22:26;16.27;;;7.77;;
16139;SDS011;8175;49.326;12.690;2022-12-18T06:24:52;14.83;;;7.53;;
16139;SDS011;8175;49.326;12.690;2022-12-18T06:27:18;15.63;;;8.97;;
16139;SDS011;8175;49.326;12.690;2022-12-18T06:29:43;18.47;;;9.57;;
16139;SDS011;8175;49.326;12.690;2022-12-18T06:32:09;21.33;;;9.10;;
16139;SDS011;8175;49.326;12.690;2022-12-18T06:34:37;23.23;;;10.43;;
16139;SDS011;8175;49.326;12.690;2022-12-18T06:37:03;25.13;;;11.73;;
16139;SDS011;8175;49.326;12.690;2022-12-18T06:39:29;27.53;;;11.90;;
16139;SDS011;8175;49.326;12.690;2022-12-18T06:41:54;28.10;;;10.57;;
16139;SDS011;8175;49.326;12.690;2022-12-18T06:44:20;20.60;;;10.50;;
16139;SDS011;8175;49.326;12.690;2022-12-18T06:46:46;26.30;;;11.13;;
16139;SDS011;8175;49.326;12.690;2022-12-18T06:49:12;29.50;;;11.67;;
16139;SDS011;8175;49.326;12.690;2022-12-18T06:51:38;29.47;;;12.77;;
16139;SDS011;8175;49.326;12.690;2022-12-18T06:54:04;34.40;;;15.93;;
16139;SDS011;8175;49.326;12.690;2022-12-18T06:56:29;34.73;;;16.50;;
16139;SDS011;8175;49.326;12.690;2022-12-18T06:58:55;35.73;;;16.37;;
16139;SDS011;8175;49.326;12.690;2022-12-18T07:01:22;23.47;;;12.50;;
16139;SDS011;8175;49.326;12.690;2022-12-18T07:03:51;33.00;;;14.13;;
16139;SDS011;8175;49.326;12.690;2022-12-18T07:06:21;25.83;;;12.07;;
16139;SDS011;8175;49.326;12.690;2022-12-18T07:08:48;27.07;;;11.73;;
16139;SDS011;8175;49.326;12.690;2022-12-18T07:11:14;23.90;;;11.30;;
16139;SDS011;8175;49.326;12.690;2022-12-18T07:13:40;12.37;;;7.13;;
16139;SDS011;8175;49.326;12.690;2022-12-18T07:16:08;13.30;;;7.60;;
16139;SDS011;8175;49.326;12.690;2022-12-18T07:18:35;16.00;;;7.03;;
16139;SDS011;8175;49.326;12.690;2022-12-18T07:21:08;15.13;;;7.63;;
16139;SDS011;8175;49.326;12.690;2022-12-18T07:23:36;20.43;;;10.03;;
16139;SDS011;8175;49.326;12.690;2022-12-18T07:26:05;23.73;;;9.80;;
16139;SDS011;8175;49.326;12.690;2022-12-18T07:28:33;18.13;;;9.83;;
16139;SDS011;8175;49.326;12.690;2022-12-18T07:31:06;15.37;;;8.20;;
16139;SDS011;8175;49.326;12.690;2022-12-18T07:33:36;17.87;;;8.90;;
16139;SDS011;8175;49.326;12.690;2022-12-18T07:36:02;35.57;;;16.43;;
16139;SDS011;8175;49.326;12.690;2022-12-18T07:38:30;27.07;;;14.47;;
16139;SDS011;8175;49.326;12.690;2022-12-18T07:41:04;28.07;;;13.17;;
16139;SDS011;8175;49.326;12.690;2022-12-18T07:43:38;33.90;;;15.40;;
16139;SDS011;8175;49.326;12.690;2022-12-18T07:46:04;43.33;;;20.40;;
16139;SDS011;8175;49.326;12.690;2022-12-18T07:48:31;43.97;;;20.80;;
16139;SDS011;8175;49.326;12.690;2022-12-18T07:51:00;32.00;;;16.27;;
16139;SDS011;8175;49.326;12.690;2022-12-18T07:53:26;40.47;;;19.30;;
16139;SDS011;8175;49.326;12.690;2022-12-18T07:55:56;41.13;;;22.90;;
16139;SDS011;8175;49.326;12.690;2022-12-18T07:58:23;38.10;;;20.03;;
16139;SDS011;8175;49.326;12.690;2022-12-18T08:00:49;44.87;;;24.77;;
16139;SDS011;8175;49.326;12.690;2022-12-18T08:03:14;51.03;;;24.87;;
16139;SDS011;8175;49.326;12.690;2022-12-18T08:22:59;92.47;;;48.90;;
16139;SDS011;8175;49.326;12.690;2022-12-18T08:25:25;86.33;;;47.47;;
16139;SDS011;8175;49.326;12.690;2022-12-18T08:27:51;73.07;;;38.20;;
16139;SDS011;8175;49.326;12.690;2022-12-18T08:30:16;125.07;;;61.23;;
16139;SDS011;8175;49.326;12.690;2022-12-18T08:32:42;88.80;;;45.83;;
16139;SDS011;8175;49.326;12.690;2022-12-18T08:35:08;107.30;;;52.63;;
16139;SDS011;8175;49.326;12.690;2022-12-18T08:37:33;102.87;;;49.53;;
16139;SDS011;8175;49.326;12.690;2022-12-18T08:39:59;66.13;;;34.23;;
16139;SDS011;8175;49.326;12.690;2022-12-18T08:42:25;58.57;;;32.47;;
16139;SDS011;8175;49.326;12.690;2022-12-18T08:45:09;90.23;;;42.93;;
16139;SDS011;8175;49.326;12.690;2022-12-18T08:47:35;98.73;;;50.50;;
16139;SDS011;8175;49.326;12.690;2022-12-18T08:50:01;81.27;;;45.80;;
16139;SDS011;8175;49.326;12.690;2022-12-18T08:52:27;84.27;;;43.77;;
16139;SDS011;8175;49.326;12.690;2022-12-18T08:54:53;72.10;;;42.60;;
16139;SDS011;8175;49.326;12.690;2022-12-18T08:57:18;72.27;;;40.10;;
16139;SDS011;8175;49.326;12.690;2022-12-18T08:59:44;77.27;;;45.10;;
16139;SDS011;8175;49.326;12.690;2022-12-18T09:02:10;94.90;;;50.50;;
16139;SDS011;8175;49.326;12.690;2022-12-18T09:04:36;105.23;;;53.80;;
16139;SDS011;8175;49.326;12.690;2022-12-18T09:07:02;136.43;;;65.83;;
16139;SDS011;8175;49.326;12.690;2022-12-18T09:09:28;94.13;;;50.93;;
16139;SDS011;8175;49.326;12.690;2022-12-18T09:11:53;115.20;;;61.13;;
16139;SDS011;8175;49.326;12.690;2022-12-18T09:14:19;158.97;;;84.27;;
16139;SDS011;8175;49.326;12.690;2022-12-18T09:16:44;90.60;;;50.53;;
16139;SDS011;8175;49.326;12.690;2022-12-18T09:19:10;97.37;;;51.57;;
16139;SDS011;8175;49.326;12.690;2022-12-18T09:21:36;74.77;;;40.00;;
16139;SDS011;8175;49.326;12.690;2022-12-18T09:24:03;139.03;;;71.83;;
16139;SDS011;8175;49.326;12.690;2022-12-18T09:26:29;128.97;;;67.80;;
16139;SDS011;8175;49.326;12.690;2022-12-18T09:28:55;132.60;;;70.53;;
16139;SDS011;8175;49.326;12.690;2022-12-18T09:31:21;155.13;;;85.30;;
16139;SDS011;8175;49.326;12.690;2022-12-18T09:33:48;140.77;;;77.27;;
16139;SDS011;8175;49.326;12.690;2022-12-18T09:36:15;150.17;;;84.63;;
16139;SDS011;8175;49.326;12.690;2022-12-18T09:38:42;122.97;;;65.97;;
16139;SDS011;8175;49.326;12.690;2022-12-18T09:43:59;118.03;;;68.47;;
16139;SDS011;8175;49.326;12.690;2022-12-18T09:46:32;107.93;;;64.00;;
16139;SDS011;8175;49.326;12.690;2022-12-18T09:49:04;86.67;;;54.50;;
16139;SDS011;8175;49.326;12.690;2022-12-18T09:51:37;71.70;;;45.30;;
16139;SDS011;8175;49.326;12.690;2022-12-18T09:57:04;42.53;;;29.57;;
16139;SDS011;8175;49.326;12.690;2022-12-18T09:59:37;37.73;;;25.70;;
16139;SDS011;8175;49.326;12.690;2022-12-18T10:02:14;28.20;;;18.43;;
16139;SDS011;8175;49.326;12.690;2022-12-18T10:04:43;16.20;;;11.73;;
16139;SDS011;8175;49.326;12.690;2022-12-18T10:07:21;20.13;;;14.10;;
16139;SDS011;8175;49.326;12.690;2022-12-18T10:15:48;16.33;;;11.67;;
16139;SDS011;8175;49.326;12.690;2022-12-18T10:21:05;14.73;;;10.57;;
16139;SDS011;8175;49.326;12.690;2022-12-18T10:23:40;30.47;;;17.47;;
16139;SDS011;8175;49.326;12.690;2022-12-18T10:26:15;54.93;;;32.50;;
16139;SDS011;8175;49.326;12.690;2022-12-18T10:28:40;101.50;;;61.70;;
16139;SDS011;8175;49.326;12.690;2022-12-18T10:31:07;29.00;;;19.27;;
16139;SDS011;8175;49.326;12.690;2022-12-18T10:33:43;18.53;;;11.80;;
16139;SDS011;8175;49.326;12.690;2022-12-18T10:36:09;20.03;;;11.77;;
16139;SDS011;8175;49.326;12.690;2022-12-18T10:38:35;18.53;;;11.83;;
16139;SDS011;8175;49.326;12.690;2022-12-18T10:44:10;16.83;;;11.00;;
16139;SDS011;8175;49.326;12.690;2022-12-18T10:46:50;20.17;;;12.93;;
16139;SDS011;8175;49.326;12.690;2022-12-18T10:49:25;24.20;;;16.90;;
16139;SDS011;8175;49.326;12.690;2022-12-18T10:52:14;21.77;;;14.33;;
16139;SDS011;8175;49.326;12.690;2022-12-18T10:54:45;21.90;;;13.33;;
16139;SDS011;8175;49.326;12.690;2022-12-18T11:02:51;21.13;;;13.90;;
16139;SDS011;8175;49.326;12.690;2022-12-18T11:07:49;20.97;;;12.80;;
16139;SDS011;8175;49.326;12.690;2022-12-18T11:10:19;20.83;;;11.57;;
16139;SDS011;8175;49.326;12.690;2022-12-18T11:12:47;18.43;;;11.23;;
16139;SDS011;8175;49.326;12.690;2022-12-18T11:15:15;19.10;;;11.80;;
16139;SDS011;8175;49.326;12.690;2022-12-18T11:17:46;21.70;;;13.07;;
16139;SDS011;8175;49.326;12.690;2022-12-18T11:20:21;16.37;;;10.87;;
16139;SDS011;8175;49.326;12.690;2022-12-18T11:23:04;17.83;;;11.87;;
16139;SDS011;8175;49.326;12.690;2022-12-18T11:25:37;24.77;;;15.07;;
16139;SDS011;8175;49.326;12.690;2022-12-18T11:28:05;20.23;;;14.13;;
16139;SDS011;8175;49.326;12.690;2022-12-18T11:30:49;18.80;;;12.87;;
16139;SDS011;8175;49.326;12.690;2022-12-18T11:33:41;21.07;;;13.03;;
16139;SDS011;8175;49.326;12.690;2022-12-18T11:36:11;19.73;;;13.90;;
16139;SDS011;8175;49.326;12.690;2022-12-18T11:38:41;20.50;;;14.27;;
16139;SDS011;8175;49.326;12.690;2022-12-18T11:44:29;19.10;;;13.50;;
16139;SDS011;8175;49.326;12.690;2022-12-18T11:47:03;19.80;;;12.70;;
16139;SDS011;8175;49.326;12.690;2022-12-18T11:49:55;20.03;;;13.33;;
16139;SDS011;8175;49.326;12.690;2022-12-18T11:52:25;13.93;;;11.27;;
16139;SDS011;8175;49.326;12.690;2022-12-18T11:55:16;16.17;;;12.47;;
16139;SDS011;8175;49.326;12.690;2022-12-18T12:00:47;15.30;;;11.37;;
16139;SDS011;8175;49.326;12.690;2022-12-18T12:03:39;20.27;;;13.43;;
16139;SDS011;8175;49.326;12.690;2022-12-18T12:09:24;20.13;;;13.17;;
16139;SDS011;8175;49.326;12.690;2022-12-18T12:15:20;22.53;;;13.73;;
16139;SDS011;8175;49.326;12.690;2022-12-18T12:17:38;21.87;;;13.73;;
16139;SDS011;8175;49.326;12.690;2022-12-18T12:20:20;25.77;;;13.30;;
16139;SDS011;8175;49.326;12.690;2022-12-18T12:23:04;23.57;;;14.53;;
16139;SDS011;8175;49.326;12.690;2022-12-18T12:28:31;20.73;;;14.73;;
16139;SDS011;8175;49.326;12.690;2022-12-18T12:31:10;59.40;;;29.93;;
16139;SDS011;8175;49.326;12.690;2022-12-18T12:36:26;55.97;;;29.00;;
16139;SDS011;8175;49.326;12.690;2022-12-18T12:39:06;43.67;;;26.13;;
16139;SDS011;8175;49.326;12.690;2022-12-18T12:41:38;53.30;;;26.70;;
16139;SDS011;8175;49.326;12.690;2022-12-18T12:44:25;51.03;;;27.27;;
16139;SDS011;8175;49.326;12.690;2022-12-18T12:47:21;24.87;;;16.13;;
16139;SDS011;8175;49.326;12.690;2022-12-18T12:49:53;28.03;;;18.93;;
16139;SDS011;8175;49.326;12.690;2022-12-18T12:52:42;23.77;;;15.73;;
16139;SDS011;8175;49.326;12.690;2022-12-18T12:55:18;24.17;;;15.73;;
16139;SDS011;8175;49.326;12.690;2022-12-18T13:00:16;24.10;;;14.67;;
16139;SDS011;8175;49.326;12.690;2022-12-18T13:10:49;23.97;;;14.83;;
16139;SDS011;8175;49.326;12.690;2022-12-18T13:13:51;27.03;;;16.33;;
16139;SDS011;8175;49.326;12.690;2022-12-18T13:16:25;26.33;;;16.53;;
16139;SDS011;8175;49.326;12.690;2022-12-18T13:18:53;26.10;;;18.00;;
16139;SDS011;8175;49.326;12.690;2022-12-18T13:21:28;25.70;;;16.33;;
16139;SDS011;8175;49.326;12.690;2022-12-18T13:23:56;26.40;;;17.13;;
16139;SDS011;8175;49.326;12.690;2022-12-18T13:26:38;24.90;;;18.30;;
16139;SDS011;8175;49.326;12.690;2022-12-18T13:29:04;23.70;;;15.27;;
16139;SDS011;8175;49.326;12.690;2022-12-18T13:36:42;30.47;;;16.77;;
16139;SDS011;8175;49.326;12.690;2022-12-18T13:41:43;26.70;;;17.33;;
16139;SDS011;8175;49.326;12.690;2022-12-18T13:44:23;26.90;;;15.40;;
16139;SDS011;8175;49.326;12.690;2022-12-18T13:46:50;26.50;;;16.07;;
16139;SDS011;8175;49.326;12.690;2022-12-18T13:49:21;34.07;;;21.03;;
16139;SDS011;8175;49.326;12.690;2022-12-18T13:51:52;37.00;;;21.83;;
16139;SDS011;8175;49.326;12.690;2022-12-18T13:54:35;34.43;;;20.63;;
16139;SDS011;8175;49.326;12.690;2022-12-18T13:57:03;30.17;;;18.40;;
16139;SDS011;8175;49.326;12.690;2022-12-18T13:59:37;27.80;;;18.60;;
16139;SDS011;8175;49.326;12.690;2022-12-18T14:02:12;29.20;;;17.70;;
16139;SDS011;8175;49.326;12.690;2022-12-18T14:04:46;30.23;;;17.13;;
16139;SDS011;8175;49.326;12.690;2022-12-18T14:07:26;36.17;;;20.07;;
16139;SDS011;8175;49.326;12.690;2022-12-18T14:09:54;40.00;;;21.87;;
16139;SDS011;8175;49.326;12.690;2022-12-18T14:12:23;41.07;;;23.97;;
16139;SDS011;8175;49.326;12.690;2022-12-18T14:20:50;40.53;;;19.03;;
16139;SDS011;8175;49.326;12.690;2022-12-18T14:23:27;34.73;;;19.27;;
16139;SDS011;8175;49.326;12.690;2022-12-18T14:25:56;31.30;;;18.20;;
16139;SDS011;8175;49.326;12.690;2022-12-18T14:28:22;35.47;;;19.43;;
16139;SDS011;8175;49.326;12.690;2022-12-18T14:30:49;33.87;;;18.53;;
16139;SDS011;8175;49.326;12.690;2022-12-18T14:33:16;29.93;;;17.87;;
16139;SDS011;8175;49.326;12.690;2022-12-18T14:35:54;26.13;;;15.37;;
16139;SDS011;8175;49.326;12.690;2022-12-18T14:38:22;32.00;;;17.70;;
16139;SDS011;8175;49.326;12.690;2022-12-18T14:41:11;32.60;;;17.03;;
16139;SDS011;8175;49.326;12.690;2022-12-18T14:43:40;38.47;;;18.50;;
16139;SDS011;8175;49.326;12.690;2022-12-18T14:48:54;30.70;;;17.77;;
16139;SDS011;8175;49.326;12.690;2022-12-18T14:51:22;29.40;;;16.97;;
16139;SDS011;8175;49.326;12.690;2022-12-18T14:53:56;31.53;;;16.67;;
16139;SDS011;8175;49.326;12.690;2022-12-18T14:56:24;31.80;;;16.07;;
16139;SDS011;8175;49.326;12.690;2022-12-18T15:03:55;31.80;;;16.60;;
16139;SDS011;8175;49.326;12.690;2022-12-18T15:06:29;34.60;;;18.17;;
16139;SDS011;8175;49.326;12.690;2022-12-18T15:08:57;37.77;;;18.70;;
16139;SDS011;8175;49.326;12.690;2022-12-18T15:11:26;30.87;;;18.07;;
16139;SDS011;8175;49.326;12.690;2022-12-18T15:14:22;39.27;;;18.63;;
16139;SDS011;8175;49.326;12.690;2022-12-18T15:16:51;33.37;;;19.17;;
16139;SDS011;8175;49.326;12.690;2022-12-18T15:19:19;34.30;;;18.47;;
16139;SDS011;8175;49.326;12.690;2022-12-18T15:21:46;44.60;;;21.03;;
16139;SDS011;8175;49.326;12.690;2022-12-18T15:24:26;41.53;;;19.73;;
16139;SDS011;8175;49.326;12.690;2022-12-18T15:26:55;36.73;;;20.87;;
16139;SDS011;8175;49.326;12.690;2022-12-18T15:29:21;44.33;;;21.53;;
16139;SDS011;8175;49.326;12.690;2022-12-18T15:32:03;49.87;;;22.37;;
16139;SDS011;8175;49.326;12.690;2022-12-18T15:34:30;38.10;;;19.90;;
16139;SDS011;8175;49.326;12.690;2022-12-18T15:36:57;39.03;;;19.30;;
16139;SDS011;8175;49.326;12.690;2022-12-18T15:39:22;37.17;;;20.00;;
16139;SDS011;8175;49.326;12.690;2022-12-18T15:41:49;44.57;;;20.97;;
16139;SDS011;8175;49.326;12.690;2022-12-18T15:44:34;43.80;;;20.40;;
16139;SDS011;8175;49.326;12.690;2022-12-18T15:46:59;42.60;;;22.20;;
16139;SDS011;8175;49.326;12.690;2022-12-18T15:49:25;44.13;;;20.13;;
16139;SDS011;8175;49.326;12.690;2022-12-18T15:51:54;39.83;;;20.70;;
16139;SDS011;8175;49.326;12.690;2022-12-18T15:54:23;35.53;;;19.83;;
16139;SDS011;8175;49.326;12.690;2022-12-18T15:57:08;36.53;;;17.90;;
16139;SDS011;8175;49.326;12.690;2022-12-18T15:59:54;37.30;;;19.73;;
16139;SDS011;8175;49.326;12.690;2022-12-18T16:02:23;45.33;;;21.40;;
16139;SDS011;8175;49.326;12.690;2022-12-18T16:04:50;47.37;;;22.70;;
16139;SDS011;8175;49.326;12.690;2022-12-18T16:07:17;35.03;;;21.10;;
16139;SDS011;8175;49.326;12.690;2022-12-18T16:09:43;42.00;;;22.57;;
16139;SDS011;8175;49.326;12.690;2022-12-18T16:12:42;43.77;;;23.57;;
16139;SDS011;8175;49.326;12.690;2022-12-18T16:15:01;36.93;;;20.63;;
16139;SDS011;8175;49.326;12.690;2022-12-18T16:17:28;43.73;;;22.73;;
16139;SDS011;8175;49.326;12.690;2022-12-18T16:19:53;43.23;;;22.23;;
16139;SDS011;8175;49.326;12.690;2022-12-18T16:22:20;43.77;;;22.37;;
16139;SDS011;8175;49.326;12.690;2022-12-18T16:24:48;43.00;;;22.80;;
16139;SDS011;8175;49.326;12.690;2022-12-18T16:27:14;48.17;;;26.03;;
16139;SDS011;8175;49.326;12.690;2022-12-18T16:29:40;61.63;;;28.40;;
16139;SDS011;8175;49.326;12.690;2022-12-18T16:32:06;48.27;;;25.23;;
16139;SDS011;8175;49.326;12.690;2022-12-18T16:34:32;53.33;;;26.57;;
16139;SDS011;8175;49.326;12.690;2022-12-18T16:37:06;48.90;;;26.73;;
16139;SDS011;8175;49.326;12.690;2022-12-18T16:39:33;55.40;;;25.27;;
16139;SDS011;8175;49.326;12.690;2022-12-18T16:41:59;54.83;;;27.77;;